Time;durP1;ratioP1;P1;durP2;ratioP2;P2;SDS_P1;SDS_P2;PMS_P1;PMS_P2;Temp;Humidity;BMP_temperature;BMP_pressure;BME280_temperature;BME280_humidity;BME280_pressure;Samples;Min_cycle;Max_cycle;Signal;HPM_P1;HPM_P2
2022/12/16 00:02:19;;;;;;;52.80;21.88;;;;;;;-5.76;70.08;99897.97;10507785;28;20045;-79
2022/12/16 00:07:23;;;;;;;44.33;20.00;;;;;;;-5.67;69.82;99894.28;10507696;28;20408;-78
2022/12/16 00:12:27;;;;;;;47.17;20.45;;;;;;;-5.68;69.27;99885.53;10506440;28;20229;-78
2022/12/16 00:17:30;;;;;;;52.72;20.80;;;;;;;-5.74;69.56;99887.44;10506629;28;20053;-79
2022/12/16 00:22:34;;;;;;;52.88;22.00;;;;;;;-5.82;69.82;99892.84;10506713;28;20519;-78
2022/12/16 00:27:37;;;;;;;52.80;21.83;;;;;;;-5.86;70.27;99892.03;10505633;28;20382;-78
2022/12/16 00:32:40;;;;;;;49.45;20.88;;;;;;;-5.94;69.82;99885.25;10507427;28;20048;-79
2022/12/16 00:37:47;;;;;;;51.35;21.02;;;;;;;-5.97;69.70;99888.81;10505358;28;20102;-78
2022/12/16 00:42:50;;;;;;;46.03;20.35;;;;;;;-5.97;70.13;99880.09;10505742;28;20037;-79
2022/12/16 00:47:53;;;;;;;49.55;20.38;;;;;;;-6.01;69.93;99888.88;10505090;28;20052;-78
2022/12/16 00:52:58;;;;;;;49.17;21.38;;;;;;;-5.96;69.70;99885.28;10503515;28;20056;-78
2022/12/16 00:58:01;;;;;;;42.50;18.90;;;;;;;-6.18;68.83;99895.31;10485825;28;20067;-79
2022/12/16 01:03:04;;;;;;;48.42;19.30;;;;;;;-6.14;69.20;99890.91;10505344;28;20040;-79
2022/12/16 01:08:09;;;;;;;44.33;21.42;;;;;;;-6.18;69.10;99889.25;10507380;28;20190;-78
2022/12/16 01:13:12;;;;;;;44.08;19.33;;;;;;;-6.27;68.16;99898.13;10506163;28;20053;-78
2022/12/16 01:18:16;;;;;;;47.92;20.20;;;;;;;-6.38;68.16;99900.09;10504943;28;20059;-78
2022/12/16 01:23:21;;;;;;;42.88;20.13;;;;;;;-6.35;68.17;99902.66;10505665;28;20098;-78
2022/12/16 01:28:24;;;;;;;42.75;19.10;;;;;;;-6.31;68.22;99907.81;10506227;28;20052;-79
2022/12/16 01:33:28;;;;;;;45.40;19.80;;;;;;;-6.34;68.12;99906.97;10504358;28;20543;-78
2022/12/16 01:38:33;;;;;;;43.70;19.83;;;;;;;-6.48;68.15;99909.00;10503586;28;20147;-79
2022/12/16 01:43:38;;;;;;;48.53;20.67;;;;;;;-6.46;68.90;99915.94;10505249;28;20132;-79
2022/12/16 01:48:46;;;;;;;46.00;20.77;;;;;;;-6.51;69.19;99920.38;10504339;28;20174;-78
2022/12/16 01:53:52;;;;;;;43.45;20.30;;;;;;;-6.45;68.81;99916.78;10504232;28;20443;-78
2022/12/16 01:58:58;;;;;;;44.10;19.23;;;;;;;-6.48;68.36;99920.31;10497972;28;20445;-78
2022/12/16 02:04:03;;;;;;;46.47;19.25;;;;;;;-6.57;68.27;99923.97;10500515;28;20094;-78
2022/12/16 02:09:11;;;;;;;42.55;18.70;;;;;;;-6.61;67.89;99929.25;10510477;28;20075;-78
2022/12/16 02:14:29;;;;;;;43.05;19.30;;;;;;;-6.66;67.74;99924.13;10509289;28;20401;-79
2022/12/16 02:20:04;;;;;;;44.05;17.65;;;;;;;-6.77;67.36;99921.72;10507405;28;20445;-79
2022/12/16 02:25:47;;;;;;;41.70;19.98;;;;;;;-6.71;67.96;99930.34;10506646;28;20084;-78
2022/12/16 02:31:19;;;;;;;46.50;19.00;;;;;;;-6.68;68.50;99930.28;10506812;28;20052;-79
2022/12/16 02:36:35;;;;;;;43.80;19.15;;;;;;;-6.77;68.58;99919.09;10518155;28;20040;-78
2022/12/16 02:41:44;;;;;;;50.28;21.13;;;;;;;-6.78;68.27;99924.34;10502076;28;20052;-78
2022/12/16 02:46:55;;;;;;;42.55;19.85;;;;;;;-6.65;68.46;99930.22;10516959;28;20425;-79
2022/12/16 02:52:00;;;;;;;42.37;19.97;;;;;;;-6.67;68.02;99932.00;10518466;28;20130;-78
2022/12/16 02:57:17;;;;;;;48.08;20.23;;;;;;;-6.82;66.63;99935.75;10500501;28;20058;-77
2022/12/16 03:02:28;;;;;;;47.15;19.77;;;;;;;-6.96;66.66;99928.13;10541345;28;20045;-79
2022/12/16 03:07:35;;;;;;;37.88;18.40;;;;;;;-7.05;66.46;99931.75;10538633;28;20048;-77
2022/12/16 03:12:40;;;;;;;46.60;18.42;;;;;;;-7.00;66.54;99939.50;10532967;28;20071;-77
2022/12/16 03:17:48;;;;;;;41.42;18.63;;;;;;;-7.11;66.14;99933.59;10522838;28;20139;-78
2022/12/16 03:22:55;;;;;;;45.10;19.23;;;;;;;-7.18;66.16;99934.56;10527117;28;20709;-78
2022/12/16 03:28:14;;;;;;;42.25;17.90;;;;;;;-7.23;66.20;99934.66;10524188;28;20055;-78
2022/12/16 03:33:28;;;;;;;47.78;18.70;;;;;;;-7.31;66.43;99945.22;10524094;28;20056;-79
2022/12/16 03:38:33;;;;;;;40.55;18.33;;;;;;;-7.26;66.37;99955.59;10521959;28;20078;-78
2022/12/16 03:43:40;;;;;;;41.53;18.85;;;;;;;-7.20;66.14;99945.91;10519516;28;20130;-79
2022/12/16 03:49:09;;;;;;;41.97;18.92;;;;;;;-7.22;66.15;99952.03;10521246;28;20083;-78
2022/12/16 03:54:26;;;;;;;43.83;18.63;;;;;;;-7.24;66.57;99954.69;10506906;28;20049;-79
2022/12/16 03:59:35;;;;;;;45.33;19.87;;;;;;;-7.20;66.10;99956.34;10516392;28;20062;-77
2022/12/16 04:04:41;;;;;;;43.28;17.80;;;;;;;-7.20;65.99;99961.56;10516122;28;20562;-78
2022/12/16 04:09:44;;;;;;;38.83;18.15;;;;;;;-7.17;65.90;99950.22;10516924;28;20252;-79
2022/12/16 04:25:37;;;;;;;49.53;18.83;;;;;;;-7.54;66.35;99962.94;10438206;28;20041;-79
2022/12/16 04:30:40;;;;;;;41.67;20.13;;;;;;;-7.36;66.89;99967.91;10516070;28;20129;-79
